Time;durP1;ratioP1;P1;durP2;ratioP2;P2;SDS_P1;SDS_P2;PMS_P1;PMS_P2;Temp;Humidity;BMP_temperature;BMP_pressure;BME280_temperature;BME280_humidity;BME280_pressure;Samples;Min_cycle;Max_cycle;Signal;HPM_P1;HPM_P2
2021/03/26 12:58:44;;;;;;;8.73;5.80;;;22.40;60.20;;;;;;5153863;27;20323;-77
2021/03/26 13:01:15;;;;;;;14.27;5.97;;;21.90;58.20;;;;;;5140328;27;20031;-80
2021/03/26 13:04:07;;;;;;;10.57;5.50;;;21.50;59.30;;;;;;5154173;27;20460;-80
2021/03/26 13:06:36;;;;;;;8.13;5.45;;;21.50;59.10;;;;;;5125769;27;20613;-81
2021/03/26 13:09:34;;;;;;;10.10;5.40;;;22.50;57.40;;;;;;5144230;27;20023;-79
2021/03/26 13:12:13;;;;;;;9.73;5.68;;;22.40;57.50;;;;;;5117568;27;20041;-79
2021/03/26 13:14:57;;;;;;;14.55;6.88;;;21.50;58.40;;;;;;5131843;27;20028;-80
2021/03/26 13:17:31;;;;;;;8.90;5.88;;;21.20;58.90;;;;;;5136542;27;20030;-79
2021/03/26 13:20:03;;;;;;;8.80;5.00;;;20.60;60.20;;;;;;5143087;27;20027;-79
2021/03/26 13:22:54;;;;;;;7.40;5.25;;;20.70;60.20;;;;;;5137122;27;20011;-80
2021/03/26 13:25:22;;;;;;;8.27;5.15;;;21.00;60.50;;;;;;5135346;27;20035;-79
2021/03/26 13:27:54;;;;;;;9.38;5.15;;;21.60;59.80;;;;;;5139035;27;20387;-79
2021/03/26 13:30:23;;;;;;;7.37;5.37;;;22.40;58.40;;;;;;5145531;27;20443;-80
2021/03/26 13:32:55;;;;;;;11.05;5.22;;;22.90;57.80;;;;;;5137446;27;20027;-80
2021/03/26 13:35:30;;;;;;;7.20;4.63;;;23.30;56.80;;;;;;5139418;27;20020;-80
2021/03/26 13:38:02;;;;;;;7.43;5.00;;;23.60;55.80;;;;;;5121147;27;20101;-77
2021/03/26 13:40:30;;;;;;;8.27;5.40;;;23.40;55.70;;;;;;5134879;27;20023;-80
2021/03/26 13:43:03;;;;;;;8.15;4.93;;;23.20;56.10;;;;;;5134074;27;20035;-80
2021/03/26 13:45:31;;;;;;;9.52;5.03;;;23.50;55.20;;;;;;5138654;27;20020;-80
2021/03/26 13:48:16;;;;;;;8.30;5.10;;;23.60;55.50;;;;;;5130340;27;20031;-80
2021/03/26 13:51:19;;;;;;;8.73;5.20;;;23.40;56.30;;;;;;5137599;27;20040;-80
2021/03/26 13:53:52;;;;;;;8.32;5.13;;;23.60;54.90;;;;;;5053342;28;20021;-80
2021/03/26 13:56:38;;;;;;;8.23;5.18;;;23.60;54.80;;;;;;5130894;27;20049;-80
2021/03/26 13:59:19;;;;;;;7.72;4.72;;;24.30;54.50;;;;;;5125562;27;20028;-80
2021/03/26 14:01:50;;;;;;;8.80;5.22;;;23.80;54.80;;;;;;5142522;27;20015;-80
2021/03/26 14:04:30;;;;;;;7.78;4.78;;;23.10;54.50;;;;;;5143632;27;20051;-80
2021/03/26 14:07:05;;;;;;;12.55;5.55;;;22.40;56.90;;;;;;5141055;27;20020;-80
2021/03/26 14:09:44;;;;;;;10.38;5.28;;;22.50;56.90;;;;;;5137969;27;20019;-80
2021/03/26 14:12:15;;;;;;;8.38;4.82;;;22.40;57.40;;;;;;5126311;27;20027;-80
2021/03/26 14:14:48;;;;;;;8.23;4.35;;;22.60;56.20;;;;;;5131079;27;20038;-79
2021/03/26 14:17:28;;;;;;;6.38;4.43;;;23.20;54.60;;;;;;5124400;27;20043;-81
2021/03/26 14:20:06;;;;;;;9.10;5.18;;;24.50;54.00;;;;;;5131646;27;20024;-80
2021/03/26 14:22:38;;;;;;;10.35;5.05;;;25.70;54.50;;;;;;5129843;27;20020;-80
2021/03/26 14:25:07;;;;;;;8.37;4.37;;;24.10;53.60;;;;;;5131631;27;20024;-80
2021/03/26 14:27:48;;;;;;;10.45;5.20;;;24.40;53.20;;;;;;5130374;27;20265;-79
2021/03/26 14:30:40;;;;;;;8.93;4.53;;;24.00;53.20;;;;;;5122321;27;20078;-80
2021/03/26 14:33:11;;;;;;;6.15;3.50;;;24.00;52.80;;;;;;5121030;27;20043;-80
2021/03/26 14:35:54;;;;;;;5.93;3.58;;;23.60;53.40;;;;;;5130812;27;20075;-80
2021/03/26 14:38:49;;;;;;;6.68;3.60;;;23.50;54.00;;;;;;5109582;27;20034;-80
2021/03/26 14:41:30;;;;;;;7.85;3.22;;;24.40;54.40;;;;;;5081144;27;20095;-81
2021/03/26 14:44:12;;;;;;;7.95;3.70;;;25.10;50.50;;;;;;5127247;27;20361;-80
2021/03/26 14:46:56;;;;;;;5.35;3.40;;;23.30;51.30;;;;;;5124473;27;20023;-80
2021/03/26 14:49:52;;;;;;;5.57;2.83;;;22.60;52.10;;;;;;5120762;27;20034;-80
2021/03/26 14:52:58;;;;;;;5.82;2.80;;;22.30;52.30;;;;;;5119195;27;20023;-78
2021/03/26 14:55:33;;;;;;;11.07;3.28;;;22.00;53.30;;;;;;5010914;28;20414;-78
2021/03/26 14:58:27;;;;;;;9.27;3.20;;;21.20;53.50;;;;;;5002326;28;20029;-78
2021/03/26 15:01:09;;;;;;;7.70;2.95;;;20.60;55.50;;;;;;5080173;28;20790;-79
2021/03/26 15:04:13;;;;;;;7.72;2.90;;;20.30;55.10;;;;;;5116681;27;20487;-79
2021/03/26 15:06:48;;;;;;;5.10;2.58;;;20.30;56.00;;;;;;5095845;28;20089;-79
2021/03/26 15:09:27;;;;;;;5.45;2.42;;;20.00;54.90;;;;;;5095896;28;20024;-79
2021/03/26 15:11:55;;;;;;;6.32;2.58;;;19.80;56.20;;;;;;5123555;27;20028;-80
2021/03/26 15:14:49;;;;;;;5.57;2.42;;;20.10;56.20;;;;;;5110109;27;20024;-79
2021/03/26 15:17:45;;;;;;;6.95;2.38;;;20.10;54.90;;;;;;5121852;27;20084;-79
2021/03/26 15:20:33;;;;;;;3.78;2.00;;;20.30;55.10;;;;;;5105718;27;20024;-79
2021/03/26 15:23:31;;;;;;;6.32;2.78;;;20.70;56.50;;;;;;5119684;27;20038;-79
2021/03/26 15:26:21;;;;;;;5.13;2.22;;;20.70;54.50;;;;;;5121698;27;20023;-79
2021/03/26 15:28:58;;;;;;;4.07;2.33;;;21.00;54.30;;;;;;5114076;27;20114;-80
2021/03/26 15:31:28;;;;;;;4.68;2.50;;;21.40;54.40;;;;;;5119476;27;20019;-78
2021/03/26 15:34:00;;;;;;;5.50;2.85;;;21.30;53.90;;;;;;5111711;28;20032;-79
2021/03/26 15:36:41;;;;;;;6.03;2.42;;;21.60;54.90;;;;;;5114060;28;20113;-78
2021/03/26 15:39:52;;;;;;;5.50;2.35;;;21.30;53.90;;;;;;5114162;28;20148;-78
2021/03/26 15:42:41;;;;;;;9.23;2.63;;;20.50;54.40;;;;;;5130382;27;20047;-78
2021/03/26 15:45:18;;;;;;;5.70;2.13;;;19.80;56.60;;;;;;5135151;27;20020;-78
2021/03/26 15:48:01;;;;;;;6.07;2.40;;;19.30;57.80;;;;;;5134512;27;20635;-78
2021/03/26 15:50:30;;;;;;;4.28;1.92;;;18.90;57.90;;;;;;5114555;27;20038;-78
2021/03/26 15:53:23;;;;;;;6.10;2.60;;;18.40;59.20;;;;;;5112940;28;20519;-78
2021/03/26 15:55:52;;;;;;;;;;;18.10;60.30;;;;;;5114067;28;20026;-78
2021/03/26 15:58:29;;;;;;;7.38;2.58;;;17.80;60.60;;;;;;5095852;27;19967;-77
2021/03/26 16:01:01;;;;;;;5.63;2.40;;;17.50;62.00;;;;;;5108383;27;20024;-78
2021/03/26 16:03:48;;;;;;;8.98;2.38;;;17.50;61.40;;;;;;5104571;27;20373;-78
2021/03/26 16:06:41;;;;;;;8.88;2.20;;;17.50;62.10;;;;;;5102647;27;20020;-78
2021/03/26 16:09:20;;;;;;;5.53;2.15;;;17.40;62.10;;;;;;5099036;28;20030;-78
2021/03/26 16:12:09;;;;;;;4.40;2.05;;;17.20;62.20;;;;;;5095371;28;20032;-78
2021/03/26 16:14:53;;;;;;;6.57;2.17;;;17.20;64.20;;;;;;5096942;27;20031;-78
2021/03/26 16:17:44;;;;;;;5.90;2.40;;;17.30;63.90;;;;;;5100717;27;20031;-78
2021/03/26 16:20:31;;;;;;;5.45;2.10;;;17.30;63.20;;;;;;5104431;28;20024;-78
2021/03/26 16:23:11;;;;;;;6.32;3.15;;;15.70;62.60;;;;;;5100840;28;20579;-78
2021/03/26 16:25:55;;;;;;;6.72;2.67;;;17.20;63.80;;;;;;5107927;28;20120;-78
2021/03/26 16:28:29;;;;;;;7.53;2.67;;;17.10;63.50;;;;;;5102913;28;20722;-78
2021/03/26 16:31:17;;;;;;;8.35;4.00;;;17.10;64.00;;;;;;5104927;28;20080;-80
2021/03/26 16:34:20;;;;;;;7.45;3.13;;;17.10;63.90;;;;;;5109179;28;20395;-78
2021/03/26 16:37:19;;;;;;;5.47;2.60;;;16.90;64.30;;;;;;5103223;28;20020;-78
2021/03/26 16:40:02;;;;;;;5.95;2.80;;;17.00;64.50;;;;;;5103950;28;20023;-78
2021/03/26 16:42:49;;;;;;;4.55;2.70;;;16.80;66.30;;;;;;5107238;27;20027;-78
2021/03/26 16:45:46;;;;;;;6.43;3.00;;;16.80;65.20;;;;;;5108763;28;20026;-79
2021/03/26 16:48:14;;;;;;;6.95;2.53;;;16.70;64.90;;;;;;5109029;28;20369;-79
2021/03/26 16:51:10;;;;;;;6.20;2.40;;;16.90;66.90;;;;;;5106030;28;20023;-78
2021/03/26 16:53:57;;;;;;;3.25;2.15;;;16.70;67.30;;;;;;5106237;28;20018;-78
2021/03/26 16:56:41;;;;;;;4.70;2.70;;;16.80;66.10;;;;;;5108870;28;20027;-78
2021/03/26 16:59:17;;;;;;;9.77;2.67;;;16.90;66.80;;;;;;5108741;28;20020;-79
2021/03/26 17:02:01;;;;;;;4.47;2.58;;;16.80;65.40;;;;;;5108236;28;20023;-79
2021/03/26 17:05:04;;;;;;;6.55;2.40;;;17.40;64.30;;;;;;5107753;28;20480;-78
2021/03/26 17:07:47;;;;;;;7.22;2.40;;;17.70;63.90;;;;;;5087032;28;20032;-78
2021/03/26 17:10:51;;;;;;;5.25;2.25;;;18.70;62.20;;;;;;5088164;28;20032;-78
2021/03/26 17:13:59;;;;;;;7.75;2.80;;;19.20;60.40;;;;;;5105649;28;20106;-78
2021/03/26 17:16:33;;;;;;;3.85;1.98;;;19.30;59.20;;;;;;5112063;28;20034;-76
2021/03/26 17:19:33;;;;;;;7.57;2.40;;;19.10;59.80;;;;;;5116214;27;20080;-76
2021/03/26 17:22:18;;;;;;;4.85;2.50;;;18.70;59.70;;;;;;5106077;28;20601;-76
2021/03/26 17:25:17;;;;;;;7.00;2.30;;;18.20;62.00;;;;;;5107301;28;20366;-76
2021/03/26 17:28:04;;;;;;;11.52;4.93;;;17.90;63.50;;;;;;5107598;28;20024;-76
2021/03/26 17:30:36;;;;;;;15.07;5.15;;;17.50;65.50;;;;;;5127079;28;20028;-76
2021/03/26 17:33:23;;;;;;;16.90;4.33;;;17.10;66.40;;;;;;5124359;28;20024;-78
2021/03/26 17:36:18;;;;;;;11.30;3.30;;;16.90;66.20;;;;;;5101526;28;20433;-78
2021/03/26 17:38:49;;;;;;;14.75;4.07;;;16.60;67.70;;;;;;5086191;28;20043;-80
2021/03/26 17:41:42;;;;;;;12.45;3.53;;;16.30;68.30;;;;;;5108382;28;20100;-80
2021/03/26 17:44:38;;;;;;;18.65;5.68;;;16.20;70.20;;;;;;5105924;28;20091;-78
2021/03/26 17:47:04;;;;;;;9.75;4.43;;;15.80;72.40;;;;;;5105113;28;20496;-80
2021/03/26 17:49:40;;;;;;;10.10;3.90;;;15.70;73.20;;;;;;5107396;28;20031;-78
2021/03/26 17:52:09;;;;;;;8.73;4.38;;;15.50;73.70;;;;;;5101451;28;20040;-78
2021/03/26 17:54:44;;;;;;;9.18;3.72;;;15.30;75.10;;;;;;5109909;28;20031;-80
2021/03/26 17:57:20;;;;;;;6.65;4.90;;;15.00;76.80;;;;;;5112422;28;20024;-79
2021/03/26 18:00:03;;;;;;;12.45;6.43;;;15.00;80.10;;;;;;5112118;28;20091;-80
2021/03/26 18:02:28;;;;;;;;;;;14.80;87.20;;;;;;5109877;28;20023;-79
2021/03/26 18:04:56;;;;;;;14.40;6.57;;;14.80;90.20;;;;;;5117531;28;20359;-79
2021/03/26 18:07:41;;;;;;;22.42;8.60;;;14.20;91.10;;;;;;5114113;28;20059;-79
2021/03/26 18:10:39;;;;;;;21.45;8.30;;;14.10;97.90;;;;;;5112031;28;20050;-78
2021/03/26 18:13:36;;;;;;;19.10;7.03;;;14.10;99.90;;;;;;5110853;27;20027;-79
2021/03/26 18:16:11;;;;;;;12.93;6.57;;;14.00;99.90;;;;;;5104467;28;20045;-79
2021/03/26 18:19:00;;;;;;;14.65;7.00;;;13.80;99.90;;;;;;5111952;27;20015;-79
2021/03/26 18:21:30;;;;;;;13.60;7.13;;;13.70;99.90;;;;;;5110754;28;20020;-79
2021/03/26 18:23:58;;;;;;;20.80;10.27;;;13.40;99.90;;;;;;5112426;28;20024;-79
2021/03/26 18:26:53;;;;;;;20.73;12.60;;;13.40;99.90;;;;;;5109526;27;20035;-78
2021/03/26 18:29:49;;;;;;;20.67;12.10;;;13.30;99.90;;;;;;5112146;28;20031;-80
2021/03/26 18:32:39;;;;;;;18.95;10.38;;;13.20;99.90;;;;;;5110811;28;20114;-81
2021/03/26 18:35:31;;;;;;;18.42;10.73;;;13.10;99.90;;;;;;5120914;28;20026;-80
2021/03/26 18:38:26;;;;;;;21.37;10.90;;;13.50;99.90;;;;;;5107298;28;20024;-79
2021/03/26 18:41:17;;;;;;;16.95;10.52;;;12.90;99.90;;;;;;5063180;28;20032;-81
2021/03/26 18:44:14;;;;;;;12.73;8.93;;;13.00;99.90;;;;;;5094854;28;20043;-81
2021/03/26 18:46:54;;;;;;;15.63;8.45;;;12.60;99.90;;;;;;5120103;27;20062;-81
2021/03/26 18:49:49;;;;;;;13.88;8.35;;;12.50;99.90;;;;;;5106852;27;20020;-80
2021/03/26 18:52:35;;;;;;;21.20;11.50;;;12.40;99.90;;;;;;5091854;28;20449;-80
2021/03/26 18:55:24;;;;;;;17.63;10.68;;;12.40;99.90;;;;;;5101591;28;20027;-82
